Time;durP1;ratioP1;P1;durP2;ratioP2;P2;SDS_P1;SDS_P2;PMS_P1;PMS_P2;Temp;Humidity;BMP_temperature;BMP_pressure;BME280_temperature;BME280_humidity;BME280_pressure;Samples;Min_cycle;Max_cycle;Signal;HPM_P1;HPM_P2
2022/09/14 00:00:23;;;;;;;4.45;1.90;;;14.60;99.90;;;;;;5051796;28;20033;-72
2022/09/14 00:02:49;;;;;;;3.15;1.65;;;14.80;99.90;;;;;;5051876;28;20063;-72
2022/09/14 00:05:14;;;;;;;3.08;1.88;;;14.70;99.90;;;;;;5033646;28;20499;-72
2022/09/14 00:07:40;;;;;;;8.05;1.75;;;14.70;99.90;;;;;;5034010;28;20037;-72
2022/09/14 00:10:06;;;;;;;5.13;2.05;;;14.40;99.90;;;;;;5051937;28;20040;-72
2022/09/14 00:12:32;;;;;;;3.88;1.67;;;14.60;99.90;;;;;;5033897;28;20446;-72
2022/09/14 00:14:57;;;;;;;5.00;1.70;;;14.50;99.90;;;;;;5033758;28;20041;-72
2022/09/14 00:17:23;;;;;;;2.55;1.63;;;14.50;99.90;;;;;;5051567;28;20045;-71
2022/09/14 00:19:48;;;;;;;4.78;1.83;;;14.70;99.90;;;;;;5051448;28;20112;-72
2022/09/14 00:22:14;;;;;;;3.75;1.60;;;14.60;99.90;;;;;;5033953;28;20025;-72
2022/09/14 00:24:39;;;;;;;5.00;1.80;;;14.60;99.90;;;;;;5051094;28;20080;-71
2022/09/14 00:27:05;;;;;;;2.65;1.70;;;14.70;99.90;;;;;;5051648;28;20072;-72
2022/09/14 00:29:32;;;;;;;3.30;1.88;;;14.70;99.90;;;;;;5017572;28;20039;-72
2022/09/14 00:31:58;;;;;;;4.90;2.13;;;14.70;99.90;;;;;;5033819;28;20529;-72
2022/09/14 00:34:24;;;;;;;3.55;2.00;;;14.60;99.90;;;;;;5032980;28;20043;-71
2022/09/14 00:36:50;;;;;;;3.55;2.15;;;14.50;99.90;;;;;;5017173;28;20037;-72
2022/09/14 00:39:18;;;;;;;5.30;3.28;;;14.60;99.90;;;;;;5051380;28;20044;-72
2022/09/14 00:41:46;;;;;;;4.63;2.65;;;14.50;99.90;;;;;;5051579;28;20048;-71
2022/09/14 00:44:11;;;;;;;6.35;2.70;;;14.40;99.90;;;;;;5036587;28;20337;-71
2022/09/14 00:46:46;;;;;;;10.35;3.85;;;14.70;99.90;;;;;;5055256;28;20441;-72
2022/09/14 00:49:19;;;;;;;7.32;3.03;;;14.50;99.90;;;;;;5020865;28;20072;-72
2022/09/14 00:51:57;;;;;;;5.53;3.08;;;14.60;99.90;;;;;;5054818;28;20041;-72
2022/09/14 00:54:23;;;;;;;7.90;3.05;;;14.60;99.90;;;;;;5036976;28;20056;-72
2022/09/14 00:56:50;;;;;;;5.53;3.15;;;14.50;99.90;;;;;;5055148;28;20041;-72
2022/09/14 00:59:20;;;;;;;3.90;2.60;;;14.60;99.90;;;;;;5037296;28;20391;-72
2022/09/14 01:01:47;;;;;;;4.45;3.20;;;14.60;99.90;;;;;;5037144;28;20048;-72
2022/09/14 01:04:12;;;;;;;7.78;3.28;;;14.50;99.90;;;;;;5020221;28;20068;-71
2022/09/14 01:07:11;;;;;;;4.60;2.88;;;14.60;99.90;;;;;;5055055;28;20122;-72
2022/09/14 01:09:48;;;;;;;7.40;4.43;;;14.50;99.90;;;;;;5055131;28;20045;-72
2022/09/14 01:12:20;;;;;;;3.40;2.88;;;14.60;99.90;;;;;;5055093;28;20041;-72
2022/09/14 01:15:05;;;;;;;6.70;2.90;;;14.60;99.90;;;;;;5054497;28;20499;-72
2022/09/14 01:17:37;;;;;;;5.80;3.00;;;14.50;99.90;;;;;;5036718;28;20047;-72
2022/09/14 01:20:30;;;;;;;7.95;2.90;;;14.60;99.90;;;;;;5054934;28;20056;-72
2022/09/14 01:23:05;;;;;;;5.65;3.13;;;14.80;99.90;;;;;;5020669;28;20490;-72
2022/09/14 01:25:44;;;;;;;4.88;2.78;;;14.60;99.90;;;;;;5054315;28;20049;-72
2022/09/14 01:28:21;;;;;;;7.75;2.80;;;14.70;99.90;;;;;;5054807;28;20122;-72
2022/09/14 01:30:49;;;;;;;6.38;3.20;;;14.70;99.90;;;;;;5036919;28;20033;-72
2022/09/14 01:33:27;;;;;;;4.93;2.40;;;14.60;99.90;;;;;;5054514;28;20037;-72
2022/09/14 01:35:56;;;;;;;6.38;2.70;;;14.60;99.90;;;;;;5019583;28;20049;-72
2022/09/14 01:38:30;;;;;;;5.93;3.08;;;14.60;99.90;;;;;;5036372;28;20388;-72
2022/09/14 01:41:00;;;;;;;5.53;3.35;;;14.60;99.90;;;;;;5036515;28;20041;-72
2022/09/14 01:43:46;;;;;;;3.90;2.65;;;14.40;99.90;;;;;;5036424;28;20068;-72
2022/09/14 01:46:18;;;;;;;7.43;3.33;;;14.50;99.90;;;;;;5036366;28;20041;-72
2022/09/14 01:49:01;;;;;;;6.17;2.80;;;14.70;99.90;;;;;;5036210;28;20045;-72
2022/09/14 01:51:49;;;;;;;10.25;3.78;;;14.90;99.90;;;;;;5053734;28;20124;-72
2022/09/14 01:54:24;;;;;;;5.18;3.15;;;14.60;99.90;;;;;;5041432;28;20063;-72
2022/09/14 01:57:00;;;;;;;5.60;3.03;;;14.40;99.90;;;;;;5061610;28;20395;-72
2022/09/14 01:59:30;;;;;;;7.63;3.45;;;14.60;99.90;;;;;;5027050;28;20132;-72
2022/09/14 02:02:15;;;;;;;7.85;3.00;;;14.40;99.90;;;;;;5043003;28;20045;-72
2022/09/14 02:05:07;;;;;;;6.55;3.40;;;14.60;99.90;;;;;;5035634;28;20079;-72
2022/09/14 02:07:33;;;;;;;6.68;3.30;;;14.20;99.90;;;;;;5036139;28;20037;-72
2022/09/14 02:10:00;;;;;;;10.45;3.40;;;14.70;99.90;;;;;;5036222;28;20045;-72
2022/09/14 02:12:25;;;;;;;6.57;3.08;;;14.70;99.90;;;;;;5019431;28;20077;-71
2022/09/14 02:14:53;;;;;;;6.43;3.10;;;15.20;99.90;;;;;;5035504;28;20072;-72
2022/09/14 02:17:19;;;;;;;7.15;3.30;;;14.50;99.90;;;;;;5053535;28;20041;-72
2022/09/14 02:19:59;;;;;;;7.57;2.90;;;14.60;99.90;;;;;;5053477;28;20037;-72
2022/09/14 02:22:27;;;;;;;4.50;3.15;;;14.70;99.90;;;;;;5053681;28;20047;-72
2022/09/14 02:24:53;;;;;;;7.95;3.33;;;15.90;99.90;;;;;;5053234;28;20068;-72
2022/09/14 02:27:19;;;;;;;9.95;3.35;;;14.90;99.90;;;;;;5035761;28;20491;-73
2022/09/14 02:29:45;;;;;;;4.93;2.95;;;14.90;99.90;;;;;;5019017;28;20043;-72
2022/09/14 02:32:11;;;;;;;9.25;3.20;;;15.00;99.90;;;;;;5053231;28;20083;-72
2022/09/14 02:34:42;;;;;;;4.47;2.53;;;14.70;99.90;;;;;;5035217;28;20045;-72
2022/09/14 02:37:47;;;;;;;4.72;2.97;;;14.80;99.90;;;;;;5053269;28;20076;-72
2022/09/14 02:40:42;;;;;;;20.52;5.10;;;15.00;99.90;;;;;;5053293;28;20080;-72
2022/09/14 02:43:39;;;;;;;9.18;2.78;;;14.90;99.90;;;;;;5053310;28;20041;-73
2022/09/14 02:46:19;;;;;;;7.03;2.85;;;15.10;99.90;;;;;;5018758;28;20398;-72
2022/09/14 02:48:55;;;;;;;4.78;2.42;;;15.40;99.90;;;;;;5035099;28;20048;-72
2022/09/14 02:51:27;;;;;;;8.48;3.78;;;15.10;99.90;;;;;;5018104;28;20036;-71
2022/09/14 02:53:55;;;;;;;5.47;3.10;;;16.10;99.90;;;;;;5034662;28;20059;-72
2022/09/14 02:56:21;;;;;;;6.50;2.28;;;14.90;99.90;;;;;;5052920;28;20550;-72
2022/09/14 02:58:47;;;;;;;8.00;2.78;;;15.10;99.90;;;;;;5034887;28;20132;-72
2022/09/14 03:01:15;;;;;;;6.32;2.67;;;15.00;99.90;;;;;;5034980;28;20402;-72
2022/09/14 03:03:41;;;;;;;6.82;2.55;;;15.00;99.90;;;;;;5052762;28;20046;-72
2022/09/14 03:06:07;;;;;;;6.85;2.80;;;14.80;99.90;;;;;;5033887;28;20048;-72
2022/09/14 03:08:33;;;;;;;6.60;2.63;;;14.80;99.90;;;;;;5052748;28;20052;-72
2022/09/14 03:10:59;;;;;;;5.85;2.88;;;14.90;99.90;;;;;;5034805;28;20051;-72
2022/09/14 03:13:24;;;;;;;4.38;3.03;;;14.80;99.90;;;;;;5034731;28;20045;-72
2022/09/14 03:15:50;;;;;;;5.20;2.53;;;15.00;99.90;;;;;;5034285;28;20146;-72
2022/09/14 03:18:16;;;;;;;4.93;2.80;;;16.00;99.90;;;;;;5034447;28;20051;-72
2022/09/14 03:20:42;;;;;;;6.63;3.13;;;15.10;99.90;;;;;;5034764;28;20556;-72
2022/09/14 03:23:09;;;;;;;7.68;3.33;;;14.90;99.90;;;;;;5034511;28;20079;-72
2022/09/14 03:25:37;;;;;;;11.05;4.07;;;15.10;99.90;;;;;;5034135;28;20486;-73
2022/09/14 03:28:04;;;;;;;5.65;2.60;;;14.80;99.90;;;;;;5052142;28;20080;-72
2022/09/14 03:30:30;;;;;;;9.77;2.63;;;14.90;99.90;;;;;;5034752;28;20055;-72
2022/09/14 03:32:57;;;;;;;4.53;2.75;;;15.10;99.90;;;;;;5052356;28;20041;-72
2022/09/14 03:35:23;;;;;;;5.95;3.35;;;14.90;99.90;;;;;;5051774;28;20468;-72
2022/09/14 03:37:49;;;;;;;4.05;2.42;;;14.90;99.90;;;;;;5017776;28;20128;-73
2022/09/14 03:40:16;;;;;;;3.13;2.42;;;14.90;99.90;;;;;;5034357;28;20029;-72
2022/09/14 03:42:43;;;;;;;6.35;2.58;;;15.20;99.90;;;;;;5034388;28;20095;-72
2022/09/14 03:45:09;;;;;;;5.40;3.08;;;14.90;99.90;;;;;;5051832;28;20037;-72
2022/09/14 03:47:35;;;;;;;7.03;2.97;;;14.90;99.90;;;;;;5051841;28;20041;-72
2022/09/14 03:50:00;;;;;;;6.57;3.00;;;14.80;99.90;;;;;;5017588;28;20072;-72
2022/09/14 03:52:26;;;;;;;4.20;2.47;;;15.00;99.90;;;;;;5033429;28;20033;-72
2022/09/14 03:54:52;;;;;;;15.45;4.05;;;14.70;99.90;;;;;;5033655;28;20041;-72
2022/09/14 03:57:17;;;;;;;8.48;2.95;;;14.90;99.90;;;;;;5017668;28;20036;-72
2022/09/14 03:59:43;;;;;;;4.22;3.03;;;15.20;99.90;;;;;;5034126;28;20033;-72
2022/09/14 04:02:08;;;;;;;8.38;3.17;;;15.00;99.90;;;;;;5051874;28;20518;-72
2022/09/14 04:04:34;;;;;;;6.65;3.17;;;14.90;99.90;;;;;;5016930;28;20414;-72
2022/09/14 04:06:59;;;;;;;5.15;3.08;;;14.90;99.90;;;;;;5033942;28;20415;-72
2022/09/14 04:09:25;;;;;;;7.10;3.22;;;14.80;99.90;;;;;;5033863;28;20037;-72
2022/09/14 04:11:51;;;;;;;5.93;2.95;;;16.20;99.90;;;;;;5033864;28;20072;-73
2022/09/14 04:14:16;;;;;;;6.28;2.80;;;14.90;99.90;;;;;;5033675;28;20032;-72
2022/09/14 04:16:43;;;;;;;5.90;3.42;;;14.90;99.90;;;;;;5053747;28;20044;-72
2022/09/14 04:19:11;;;;;;;6.70;2.90;;;15.10;99.90;;;;;;5058119;28;20049;-73
2022/09/14 04:21:36;;;;;;;4.97;3.15;;;15.80;99.90;;;;;;5023808;28;20556;-72
2022/09/14 04:24:02;;;;;;;8.02;3.15;;;15.10;99.90;;;;;;5039915;28;20036;-73
2022/09/14 04:26:29;;;;;;;5.47;2.47;;;15.10;99.90;;;;;;5058369;28;20033;-72
2022/09/14 04:28:55;;;;;;;6.00;2.85;;;14.90;99.90;;;;;;5040191;28;20131;-72
2022/09/14 04:31:21;;;;;;;4.22;2.33;;;15.10;99.90;;;;;;5040402;28;20115;-71
2022/09/14 04:33:49;;;;;;;4.43;2.90;;;15.20;99.90;;;;;;5023560;28;20098;-72
2022/09/14 04:36:20;;;;;;;6.72;2.70;;;15.00;99.90;;;;;;5023746;28;20105;-72
2022/09/14 04:38:45;;;;;;;5.95;2.80;;;15.10;99.90;;;;;;5040238;28;20604;-72
2022/09/14 04:41:17;;;;;;;5.60;2.70;;;15.50;99.90;;;;;;5040151;28;20075;-72
2022/09/14 04:43:44;;;;;;;5.85;2.55;;;15.00;99.90;;;;;;5039998;28;20048;-72
2022/09/14 04:46:13;;;;;;;5.80;3.03;;;15.00;99.90;;;;;;5040035;28;20408;-71
2022/09/14 04:48:38;;;;;;;5.45;2.90;;;15.10;99.90;;;;;;5040069;28;20032;-72
2022/09/14 04:51:07;;;;;;;4.60;2.25;;;15.60;99.90;;;;;;5057451;28;20063;-71
2022/09/14 04:53:34;;;;;;;8.52;3.15;;;14.90;99.90;;;;;;5040148;28;20137;-72
2022/09/14 04:56:00;;;;;;;7.40;2.50;;;14.90;99.90;;;;;;5039916;28;20040;-72
2022/09/14 04:58:27;;;;;;;4.78;2.40;;;15.10;99.90;;;;;;5040130;28;20482;-72
2022/09/14 05:00:54;;;;;;;6.05;2.92;;;15.10;99.90;;;;;;5023435;28;20079;-72
2022/09/14 05:03:21;;;;;;;6.25;2.50;;;15.00;99.90;;;;;;5040105;28;20040;-72
2022/09/14 05:05:46;;;;;;;6.00;2.55;;;15.40;99.90;;;;;;5039841;28;20037;-73
2022/09/14 05:08:12;;;;;;;7.78;2.78;;;14.90;99.90;;;;;;5040018;28;20521;-72
2022/09/14 05:10:37;;;;;;;6.78;2.90;;;15.00;99.90;;;;;;5057992;28;20086;-73
2022/09/14 05:13:03;;;;;;;4.32;2.33;;;15.10;99.90;;;;;;5058024;28;20044;-72
2022/09/14 05:15:28;;;;;;;6.10;2.65;;;15.80;99.90;;;;;;5057334;28;20036;-72
2022/09/14 05:17:54;;;;;;;5.40;2.35;;;15.70;99.90;;;;;;5039737;28;20041;-72
2022/09/14 05:20:20;;;;;;;6.90;2.83;;;15.10;99.90;;;;;;5039980;28;20120;-73
2022/09/14 05:22:48;;;;;;;3.92;2.30;;;15.60;99.90;;;;;;5039972;28;20040;-73
2022/09/14 05:25:14;;;;;;;2.83;2.28;;;15.00;99.90;;;;;;5022937;28;20111;-72
2022/09/14 05:27:40;;;;;;;5.82;2.63;;;15.00;99.90;;;;;;5039634;28;20128;-72
2022/09/14 05:30:06;;;;;;;7.75;2.55;;;15.10;99.90;;;;;;5036003;28;20043;-72
2022/09/14 05:32:31;;;;;;;5.20;2.50;;;15.20;99.90;;;;;;5036677;28;20047;-72
2022/09/14 05:34:57;;;;;;;6.85;2.70;;;15.20;99.90;;;;;;5052802;22;20037;-70
2022/09/14 05:37:22;;;;;;;7.28;4.07;;;15.10;99.90;;;;;;5054155;28;20037;-70
2022/09/14 05:39:48;;;;;;;8.38;2.97;;;15.10;99.90;;;;;;5054213;28;20089;-71
2022/09/14 05:42:14;;;;;;;5.55;3.00;;;15.20;99.90;;;;;;5054029;28;20037;-70
2022/09/14 05:44:39;;;;;;;6.55;4.30;;;15.20;99.90;;;;;;5053593;28;20048;-70
2022/09/14 05:47:05;;;;;;;9.10;3.05;;;15.90;99.90;;;;;;5052620;28;20044;-71
2022/09/14 05:49:31;;;;;;;6.53;3.05;;;15.30;99.90;;;;;;5054049;28;20041;-71
2022/09/14 05:51:56;;;;;;;6.60;3.47;;;15.10;99.90;;;;;;5053907;28;20037;-71
2022/09/14 05:54:22;;;;;;;9.45;3.45;;;15.10;99.90;;;;;;5052134;28;20127;-71
2022/09/14 05:56:47;;;;;;;7.03;3.92;;;15.20;99.90;;;;;;5053812;28;20041;-71
2022/09/14 05:59:13;;;;;;;5.35;3.33;;;15.10;99.90;;;;;;5053017;28;20047;-70
2022/09/14 06:01:39;;;;;;;8.70;2.95;;;15.70;99.90;;;;;;5031728;28;20045;-69
2022/09/14 06:04:04;;;;;;;7.90;3.55;;;15.50;99.90;;;;;;5058138;28;20439;-70
2022/09/14 06:06:31;;;;;;;6.30;3.10;;;16.70;99.90;;;;;;5064774;28;20116;-70
2022/09/14 06:08:58;;;;;;;4.63;3.65;;;15.30;99.90;;;;;;5057271;28;20375;-70
2022/09/14 06:11:30;;;;;;;4.80;3.10;;;15.40;99.90;;;;;;5060176;28;20032;-69
2022/09/14 06:13:56;;;;;;;10.73;3.97;;;15.50;99.90;;;;;;5049468;28;20041;-70
2022/09/14 06:16:23;;;;;;;8.45;3.08;;;15.40;99.90;;;;;;5058895;28;20048;-71
2022/09/14 06:18:49;;;;;;;13.52;3.53;;;15.60;99.90;;;;;;5062587;28;20426;-71
2022/09/14 06:21:18;;;;;;;5.70;3.28;;;15.70;99.90;;;;;;5054339;28;20033;-70
2022/09/14 06:23:44;;;;;;;6.38;3.33;;;15.60;99.90;;;;;;5039601;28;20037;-71
2022/09/14 06:26:10;;;;;;;6.05;3.10;;;16.00;99.90;;;;;;5062791;28;20123;-70
2022/09/14 06:28:36;;;;;;;10.85;3.33;;;15.50;99.90;;;;;;5071386;28;20075;-71
2022/09/14 06:31:03;;;;;;;6.80;3.45;;;15.60;99.90;;;;;;5072988;28;20032;-70
2022/09/14 06:33:29;;;;;;;6.18;3.10;;;15.80;99.90;;;;;;5073332;28;20098;-70
2022/09/14 06:36:03;;;;;;;7.60;2.97;;;15.80;99.90;;;;;;5072755;28;20471;-70
2022/09/14 06:38:29;;;;;;;10.35;3.75;;;16.00;99.90;;;;;;5055166;28;20128;-70
2022/09/14 06:40:58;;;;;;;6.95;3.22;;;15.80;99.90;;;;;;5070438;28;20487;-70
2022/09/14 06:43:25;;;;;;;8.80;3.47;;;16.50;99.90;;;;;;5054908;28;20115;-71
2022/09/14 06:46:00;;;;;;;9.07;3.17;;;15.90;99.90;;;;;;5055390;28;20704;-71
2022/09/14 06:48:28;;;;;;;6.78;2.78;;;16.00;99.90;;;;;;5050185;28;20048;-71
2022/09/14 06:50:53;;;;;;;5.05;3.28;;;15.80;99.90;;;;;;5052112;28;20391;-70
2022/09/14 06:53:19;;;;;;;5.35;2.90;;;16.00;99.90;;;;;;5051180;28;20048;-70
2022/09/14 06:55:45;;;;;;;9.13;3.72;;;16.10;99.90;;;;;;5053459;28;20036;-70
2022/09/14 06:58:11;;;;;;;10.80;2.65;;;16.20;99.90;;;;;;5055009;28;20105;-70
2022/09/14 07:00:36;;;;;;;7.47;2.80;;;16.20;99.90;;;;;;5052432;28;20402;-70
2022/09/14 07:03:02;;;;;;;12.00;3.25;;;16.40;99.90;;;;;;5051216;28;20040;-70
2022/09/14 07:05:29;;;;;;;4.70;2.10;;;16.20;99.90;;;;;;5049976;28;20116;-70
2022/09/14 07:07:56;;;;;;;7.22;2.30;;;16.20;99.90;;;;;;5051894;28;20045;-69
2022/09/14 07:10:22;;;;;;;7.32;2.28;;;16.40;99.90;;;;;;5050643;28;20037;-69
2022/09/14 07:12:48;;;;;;;4.50;2.50;;;16.30;99.90;;;;;;5034258;28;20033;-69
2022/09/14 07:15:14;;;;;;;7.55;2.80;;;16.60;99.90;;;;;;5051020;28;20044;-70
2022/09/14 07:17:43;;;;;;;5.88;2.55;;;16.40;99.90;;;;;;5051152;28;20126;-70
2022/09/14 07:20:10;;;;;;;9.68;2.40;;;16.40;99.90;;;;;;5051097;28;20041;-70
2022/09/14 07:22:35;;;;;;;5.22;2.05;;;16.50;99.90;;;;;;5050674;28;20037;-69
2022/09/14 07:25:01;;;;;;;4.80;2.30;;;16.50;99.90;;;;;;5050214;28;20041;-69
2022/09/14 07:27:26;;;;;;;6.55;2.17;;;16.60;99.90;;;;;;5052091;28;20040;-69
2022/09/14 07:29:52;;;;;;;7.82;2.38;;;16.90;99.90;;;;;;5050713;28;20513;-69
2022/09/14 07:32:18;;;;;;;9.40;2.25;;;16.80;99.90;;;;;;5050442;28;20040;-70
2022/09/14 07:34:44;;;;;;;11.65;2.40;;;16.70;99.90;;;;;;5050436;28;20057;-69
2022/09/14 07:37:09;;;;;;;6.03;1.98;;;16.60;99.90;;;;;;5051851;28;20032;-69
2022/09/14 07:39:35;;;;;;;7.35;2.28;;;16.70;99.90;;;;;;5051567;28;20041;-69
2022/09/14 07:42:01;;;;;;;5.30;1.80;;;16.90;99.90;;;;;;5033763;28;20061;-69
2022/09/14 07:44:27;;;;;;;2.42;1.38;;;17.00;99.90;;;;;;5049891;28;20044;-69
2022/09/14 07:46:52;;;;;;;8.98;2.05;;;16.80;99.90;;;;;;5050350;28;20045;-69
2022/09/14 07:49:18;;;;;;;4.85;1.60;;;16.90;99.90;;;;;;5051551;28;20411;-70
2022/09/14 07:51:44;;;;;;;7.65;1.80;;;16.80;99.90;;;;;;5049873;28;20123;-69
2022/09/14 07:54:12;;;;;;;4.47;1.67;;;17.00;99.90;;;;;;5051087;28;20040;-69
2022/09/14 07:56:39;;;;;;;3.65;1.80;;;15.60;99.90;;;;;;5033565;28;20174;-69
2022/09/14 07:59:05;;;;;;;5.05;1.02;;;17.20;99.90;;;;;;5051589;28;20045;-70
2022/09/14 08:01:30;;;;;;;6.18;1.55;;;17.00;99.90;;;;;;5050225;28;20036;-70
2022/09/14 08:04:01;;;;;;;8.70;2.50;;;16.40;99.90;;;;;;5049892;28;20083;-68
2022/09/14 08:06:27;;;;;;;4.03;2.00;;;17.00;99.90;;;;;;5051413;28;20038;-70
2022/09/14 08:08:53;;;;;;;5.43;2.00;;;17.30;99.90;;;;;;5050212;28;20051;-69
2022/09/14 08:11:24;;;;;;;7.82;1.48;;;17.10;99.90;;;;;;5051089;28;20082;-68
2022/09/14 08:13:52;;;;;;;5.18;1.33;;;17.30;99.90;;;;;;5049709;28;20041;-69
2022/09/14 08:16:19;;;;;;;4.30;1.33;;;17.30;99.90;;;;;;5051268;28;20406;-69
2022/09/14 08:18:45;;;;;;;5.70;1.30;;;17.40;99.90;;;;;;5049998;28;20071;-69
2022/09/14 08:21:14;;;;;;;6.47;1.88;;;17.30;99.90;;;;;;5051260;28;20041;-69
2022/09/14 08:23:41;;;;;;;7.47;1.70;;;17.50;99.90;;;;;;5051545;28;20066;-69
2022/09/14 08:26:27;;;;;;;5.88;1.38;;;18.50;99.90;;;;;;5051021;28;20064;-69
2022/09/14 08:28:54;;;;;;;7.10;1.08;;;17.60;99.90;;;;;;5049526;28;20052;-69
2022/09/14 08:31:24;;;;;;;7.93;1.55;;;17.60;99.90;;;;;;5049804;28;20511;-69
2022/09/14 08:33:52;;;;;;;6.00;1.02;;;17.70;99.90;;;;;;5049736;28;20044;-69
2022/09/14 08:36:19;;;;;;;8.20;1.60;;;18.40;99.90;;;;;;5051104;28;20123;-69
2022/09/14 08:38:45;;;;;;;6.43;1.95;;;18.30;99.90;;;;;;5051282;28;20041;-69
2022/09/14 08:41:42;;;;;;;4.32;1.30;;;18.20;99.90;;;;;;5049816;28;20098;-69
2022/09/14 08:44:10;;;;;;;8.43;1.27;;;18.30;99.90;;;;;;5049581;28;20048;-69
2022/09/14 08:46:52;;;;;;;1.83;0.77;;;18.40;99.90;;;;;;5051155;28;20398;-69
2022/09/14 08:49:33;;;;;;;5.13;0.82;;;18.70;99.90;;;;;;5050060;28;20076;-70
2022/09/14 08:51:58;;;;;;;4.55;0.77;;;18.70;99.90;;;;;;5049704;28;20041;-69
2022/09/14 08:54:24;;;;;;;4.55;1.00;;;18.80;99.90;;;;;;5049448;28;20406;-69
2022/09/14 08:57:14;;;;;;;4.82;1.23;;;18.60;99.90;;;;;;5049662;28;20135;-70
2022/09/14 09:00:08;;;;;;;1.70;0.90;;;18.40;99.90;;;;;;5049700;28;20045;-69
2022/09/14 09:02:50;;;;;;;4.88;1.00;;;18.50;99.90;;;;;;5049537;28;20043;-69
2022/09/14 09:05:27;;;;;;;4.35;1.13;;;18.30;99.90;;;;;;5052754;28;20119;-69
2022/09/14 09:08:15;;;;;;;4.63;1.30;;;18.20;99.90;;;;;;5055573;28;20088;-69
2022/09/14 09:10:41;;;;;;;6.43;1.08;;;18.30;99.90;;;;;;5036438;28;20510;-69
2022/09/14 09:13:17;;;;;;;4.80;1.52;;;18.30;99.90;;;;;;5053152;28;20045;-69
2022/09/14 09:15:46;;;;;;;5.10;1.10;;;18.40;99.90;;;;;;5053059;28;20041;-69
2022/09/14 09:18:25;;;;;;;4.55;1.17;;;16.30;99.90;;;;;;5070050;28;20045;-70
2022/09/14 09:20:57;;;;;;;6.45;1.30;;;18.50;99.90;;;;;;5053963;28;20037;-70
2022/09/14 09:23:26;;;;;;;3.67;1.00;;;18.80;99.90;;;;;;5054297;28;20490;-69
2022/09/14 09:25:58;;;;;;;2.85;0.80;;;18.60;99.90;;;;;;5053090;28;20564;-70
2022/09/14 09:28:27;;;;;;;4.68;0.93;;;19.20;99.90;;;;;;5052416;28;20056;-69
2022/09/14 09:30:56;;;;;;;7.72;1.10;;;19.10;99.90;;;;;;5053182;28;20048;-70
2022/09/14 09:33:25;;;;;;;9.95;1.50;;;19.50;99.90;;;;;;5052664;28;20502;-70
2022/09/14 09:35:52;;;;;;;7.68;1.20;;;19.30;99.90;;;;;;5053522;28;20033;-70
2022/09/14 09:38:23;;;;;;;4.40;0.88;;;19.10;99.90;;;;;;5041763;28;20549;-70
2022/09/14 09:40:57;;;;;;;8.40;0.77;;;19.00;99.90;;;;;;5051708;28;20327;-69
2022/09/14 09:43:22;;;;;;;4.95;1.17;;;19.40;99.90;;;;;;5053502;28;20483;-69
2022/09/14 09:46:01;;;;;;;3.42;0.80;;;19.40;99.90;;;;;;5053430;28;20029;-70
2022/09/14 09:48:32;;;;;;;5.65;0.88;;;19.50;99.90;;;;;;5054151;28;20043;-69
2022/09/14 09:51:09;;;;;;;5.38;0.80;;;19.40;99.90;;;;;;5052842;28;20087;-70
2022/09/14 09:53:44;;;;;;;5.15;1.05;;;19.50;99.90;;;;;;5052448;28;20120;-70
2022/09/14 09:56:20;;;;;;;3.13;0.65;;;19.70;99.90;;;;;;5052104;28;20123;-70
2022/09/14 09:58:50;;;;;;;9.73;0.85;;;19.70;99.90;;;;;;5053922;28;20063;-69
2022/09/14 10:01:22;;;;;;;6.53;0.75;;;19.60;99.90;;;;;;5053798;28;20048;-69
2022/09/14 10:04:23;;;;;;;5.47;1.00;;;20.90;99.90;;;;;;5035521;28;20890;-69
2022/09/14 10:06:52;;;;;;;4.90;1.00;;;20.00;99.90;;;;;;5053524;28;20107;-70
2022/09/14 10:09:21;;;;;;;6.82;0.80;;;20.00;99.90;;;;;;5053741;28;20036;-71
2022/09/14 10:11:56;;;;;;;6.65;1.00;;;20.00;99.90;;;;;;5052197;28;20047;-71
2022/09/14 10:14:33;;;;;;;5.22;0.93;;;20.10;99.90;;;;;;5051499;28;20041;-72
2022/09/14 10:17:14;;;;;;;3.60;1.17;;;20.00;99.90;;;;;;5052165;28;20503;-71
2022/09/14 10:19:40;;;;;;;3.15;0.80;;;19.80;99.90;;;;;;5052151;28;20077;-70
2022/09/14 10:22:26;;;;;;;3.17;1.02;;;19.70;99.90;;;;;;5053482;28;20491;-70
2022/09/14 10:25:12;;;;;;;8.07;0.93;;;20.30;99.90;;;;;;5048846;28;20045;-67
2022/09/14 10:27:54;;;;;;;4.82;0.80;;;19.40;99.90;;;;;;5057039;28;20037;-69
2022/09/14 10:30:25;;;;;;;6.20;1.05;;;19.90;99.90;;;;;;5039911;28;20044;-69
2022/09/14 10:33:14;;;;;;;7.38;1.23;;;19.80;99.90;;;;;;5057872;28;20028;-69
2022/09/14 10:35:55;;;;;;;8.35;1.35;;;19.60;99.90;;;;;;5056487;28;20036;-70
2022/09/14 10:38:32;;;;;;;4.43;0.90;;;19.60;99.90;;;;;;5059614;28;20044;-69
2022/09/14 10:41:19;;;;;;;6.68;1.15;;;19.80;99.90;;;;;;5051344;28;20371;-70
2022/09/14 10:43:56;;;;;;;8.52;0.80;;;19.70;99.90;;;;;;5055948;28;20072;-69
2022/09/14 10:46:29;;;;;;;4.13;0.90;;;19.70;99.90;;;;;;5030861;28;20041;-69
2022/09/14 10:49:20;;;;;;;4.72;1.00;;;19.30;99.90;;;;;;5048428;28;20036;-70
2022/09/14 10:52:15;;;;;;;5.22;0.90;;;19.30;99.90;;;;;;5060329;28;20083;-70
2022/09/14 10:54:50;;;;;;;4.00;0.70;;;19.50;99.90;;;;;;5039355;28;20048;-69
2022/09/14 10:57:47;;;;;;;6.63;1.00;;;19.40;99.90;;;;;;5056116;28;20068;-69
2022/09/14 11:00:19;;;;;;;5.57;0.80;;;19.20;99.90;;;;;;5047698;28;20066;-69
2022/09/14 11:02:51;;;;;;;6.15;0.80;;;19.40;99.90;;;;;;5060732;28;20039;-70
2022/09/14 11:05:24;;;;;;;5.68;1.23;;;19.30;99.90;;;;;;5049760;28;20702;-69
2022/09/14 11:08:21;;;;;;;4.03;0.93;;;19.60;99.90;;;;;;5048518;28;20119;-70
2022/09/14 11:10:57;;;;;;;7.22;1.67;;;19.70;99.90;;;;;;5049963;28;20086;-70
2022/09/14 11:13:37;;;;;;;3.25;0.95;;;19.90;99.90;;;;;;5050261;28;20056;-70
2022/09/14 11:16:34;;;;;;;7.07;1.17;;;19.70;99.90;;;;;;5057543;28;20033;-71
2022/09/14 11:19:12;;;;;;;6.00;0.90;;;20.00;99.90;;;;;;5047221;28;20033;-70
2022/09/14 11:22:26;;;;;;;4.03;0.70;;;20.30;99.90;;;;;;5031909;28;20033;-70
2022/09/14 11:25:15;;;;;;;3.03;0.70;;;20.30;99.90;;;;;;5047674;28;20060;-71
2022/09/14 11:28:02;;;;;;;5.57;0.85;;;20.20;99.90;;;;;;5071288;28;20044;-71
2022/09/14 11:31:06;;;;;;;3.22;1.00;;;20.00;99.90;;;;;;5070793;28;20080;-72
2022/09/14 11:33:35;;;;;;;4.80;0.77;;;19.90;99.90;;;;;;5070603;28;20052;-73
2022/09/14 11:36:07;;;;;;;7.40;0.90;;;20.00;99.90;;;;;;5084788;22;20094;-75
2022/09/14 11:38:45;;;;;;;6.63;1.00;;;20.00;99.90;;;;;;5078600;28;20060;-76
2022/09/14 11:41:45;;;;;;;5.75;1.15;;;19.50;99.90;;;;;;5055451;28;20494;-77
2022/09/14 11:44:46;;;;;;;2.53;1.20;;;19.80;99.90;;;;;;4997798;28;20068;-76
2022/09/14 11:47:16;;;;;;;5.15;1.55;;;19.70;99.90;;;;;;5033728;28;20415;-76
2022/09/14 11:50:06;;;;;;;3.85;0.90;;;19.80;99.90;;;;;;5029716;28;20120;-76
2022/09/14 11:52:32;;;;;;;6.72;1.25;;;20.00;99.90;;;;;;5019820;28;20056;-75
2022/09/14 11:55:00;;;;;;;5.78;1.00;;;20.90;99.90;;;;;;5031520;28;20076;-76
2022/09/14 11:57:31;;;;;;;3.33;1.05;;;20.50;99.90;;;;;;5033238;28;20530;-76
2022/09/14 12:00:05;;;;;;;4.78;1.02;;;20.40;99.90;;;;;;5031589;28;20398;-76
2022/09/14 12:02:31;;;;;;;6.03;1.30;;;20.40;99.90;;;;;;5032053;28;20041;-77
2022/09/14 12:05:06;;;;;;;4.75;0.95;;;21.80;99.90;;;;;;5030200;28;20103;-77
2022/09/14 12:07:46;;;;;;;6.50;1.30;;;20.30;99.90;;;;;;5030605;28;20045;-76
2022/09/14 12:10:15;;;;;;;8.45;1.50;;;21.80;99.90;;;;;;5030111;28;20037;-74
2022/09/14 12:12:52;;;;;;;2.03;0.93;;;21.10;99.90;;;;;;5013626;28;20045;-76
2022/09/14 12:15:30;;;;;;;9.75;2.47;;;22.00;99.90;;;;;;5030048;28;20037;-77
2022/09/14 12:18:05;;;;;;;29.73;1.38;;;20.70;99.80;;;;;;5036112;28;20462;-76
2022/09/14 12:20:40;;;;;;;5.15;1.15;;;20.60;99.70;;;;;;5055741;28;20125;-76
2022/09/14 12:23:24;;;;;;;5.57;0.80;;;20.70;99.40;;;;;;5038417;28;20084;-74
2022/09/14 12:26:00;;;;;;;6.63;1.35;;;20.80;99.20;;;;;;5048242;28;20045;-77
2022/09/14 12:28:30;;;;;;;4.53;0.93;;;20.50;99.70;;;;;;5051005;28;20033;-77
2022/09/14 12:30:56;;;;;;;4.43;1.05;;;20.40;99.60;;;;;;5067382;28;20076;-77
2022/09/14 12:33:33;;;;;;;6.30;1.20;;;21.20;99.90;;;;;;5067159;28;20084;-77
2022/09/14 12:36:06;;;;;;;4.80;1.15;;;20.60;99.70;;;;;;5066526;28;20041;-77
2022/09/14 12:38:51;;;;;;;3.20;1.17;;;20.40;99.60;;;;;;5052372;28;20063;-77
2022/09/14 12:41:19;;;;;;;4.13;1.25;;;20.60;99.50;;;;;;5056569;28;20042;-77
2022/09/14 12:43:47;;;;;;;5.90;0.73;;;21.00;99.90;;;;;;5014102;28;20045;-77
2022/09/14 12:46:19;;;;;;;5.60;0.70;;;21.70;99.50;;;;;;5015493;28;20050;-78
2022/09/14 12:48:47;;;;;;;8.38;0.95;;;20.80;99.90;;;;;;5014455;28;20046;-77
2022/09/14 12:51:31;;;;;;;5.00;1.05;;;20.60;99.90;;;;;;5014124;28;20041;-78
2022/09/14 12:54:07;;;;;;;6.63;0.93;;;20.80;99.70;;;;;;5031337;28;20048;-77
2022/09/14 12:56:35;;;;;;;4.25;0.90;;;20.60;99.80;;;;;;5057862;28;20045;-77
2022/09/14 12:59:38;;;;;;;6.68;0.88;;;20.80;99.90;;;;;;5053610;28;20063;-77
2022/09/14 13:02:07;;;;;;;4.88;1.10;;;20.70;99.90;;;;;;5038506;28;20045;-77
2022/09/14 13:04:35;;;;;;;3.92;1.20;;;20.70;99.90;;;;;;5039530;28;20061;-76
2022/09/14 13:07:04;;;;;;;4.78;1.75;;;20.20;99.90;;;;;;5052650;28;20047;-77